createdAt,value
2023-04-03T00:01:07.355Z,7.02
2023-04-03T00:03:34.671Z,6.99
2023-04-03T00:06:03.816Z,6.98
2023-04-03T00:08:33.658Z,6.93
2023-04-03T00:11:00.405Z,6.90
2023-04-03T00:13:27.207Z,6.85
2023-04-03T00:15:54.139Z,6.81
2023-04-03T00:18:21.147Z,6.77
2023-04-03T00:20:48.611Z,6.74
2023-04-03T00:23:15.869Z,6.71
2023-04-03T00:25:43.214Z,6.69
2023-04-03T00:28:09.986Z,6.67
2023-04-03T00:30:37.089Z,6.67
2023-04-03T00:33:04.180Z,6.68
2023-04-03T00:35:31.380Z,6.69
2023-04-03T00:37:58.854Z,6.72
2023-04-03T00:40:27.650Z,6.75
2023-04-03T00:43:00.164Z,6.81
2023-04-03T00:45:38.524Z,6.84
2023-04-03T00:48:08.904Z,6.89
2023-04-03T00:50:40.469Z,6.94
2023-04-03T00:53:19.861Z,6.97
2023-04-03T00:55:49.359Z,6.96
2023-04-03T00:58:20.787Z,6.98
2023-04-03T01:00:57.106Z,6.95
2023-04-03T01:03:24.687Z,6.94
2023-04-03T01:05:52.214Z,6.93
2023-04-03T01:08:19.028Z,6.93
2023-04-03T01:10:45.942Z,6.93
2023-04-03T01:13:30.891Z,6.95
2023-04-03T01:16:01.169Z,6.93
2023-04-03T01:18:28.093Z,6.94
2023-04-03T01:21:25.454Z,6.95
2023-04-03T01:24:11.516Z,6.95
2023-04-03T01:26:38.270Z,6.95
2023-04-03T01:29:05.369Z,6.96
2023-04-03T01:31:56.849Z,6.97
2023-04-03T01:34:25.014Z,6.96
2023-04-03T01:36:53.017Z,6.98
2023-04-03T01:39:20.988Z,6.99
2023-04-03T01:41:48.619Z,7.00
2023-04-03T01:44:15.652Z,7.00
2023-04-03T01:46:43.332Z,7.00
2023-04-03T01:49:10.672Z,7.01
2023-04-03T01:51:37.460Z,7.00
2023-04-03T01:54:04.910Z,7.01
2023-04-03T01:56:31.938Z,6.99
2023-04-03T01:58:58.739Z,6.96
2023-04-03T02:01:26.997Z,6.95
2023-04-03T02:03:53.959Z,6.95
2023-04-03T02:06:20.762Z,6.96
2023-04-03T02:08:47.508Z,6.95
2023-04-03T02:11:14.249Z,6.96
2023-04-03T02:13:41.180Z,6.95
2023-04-03T02:16:10.888Z,6.96
2023-04-03T02:18:39.015Z,6.95
2023-04-03T02:21:05.811Z,6.95
2023-04-03T02:23:32.777Z,6.95
2023-04-03T02:26:12.600Z,6.94
2023-04-03T02:28:40.679Z,6.90
2023-04-03T02:31:08.446Z,6.88
2023-04-03T02:33:37.556Z,6.88
2023-04-03T02:36:06.823Z,6.84
2023-04-03T02:38:34.258Z,6.83
2023-04-03T02:41:04.353Z,6.81
2023-04-03T02:43:31.152Z,6.78
2023-04-03T02:45:57.940Z,6.77
2023-04-03T02:48:25.559Z,6.74
2023-04-03T02:50:52.579Z,6.73
2023-04-03T02:53:20.326Z,6.71
2023-04-03T02:55:47.425Z,6.71
2023-04-03T02:58:14.224Z,6.70
2023-04-03T03:00:41.439Z,6.69
2023-04-03T03:03:08.336Z,6.67
2023-04-03T03:05:35.558Z,6.66
2023-04-03T03:08:02.313Z,6.61
2023-04-03T03:10:29.036Z,6.59
2023-04-03T03:12:55.816Z,6.58
2023-04-03T03:15:22.666Z,6.56
2023-04-03T03:17:49.409Z,6.54
2023-04-03T03:20:16.380Z,6.54
2023-04-03T03:22:43.236Z,6.52
2023-04-03T03:25:10.382Z,6.50
2023-04-03T03:27:37.202Z,6.48
2023-04-03T03:30:05.515Z,6.47
2023-04-03T03:32:32.403Z,6.45
2023-04-03T03:34:59.166Z,6.42
2023-04-03T03:37:25.864Z,6.42
2023-04-03T03:39:52.590Z,6.39
2023-04-03T03:42:19.334Z,6.37
2023-04-03T03:44:46.301Z,6.35
2023-04-03T03:47:13.021Z,6.35
2023-04-03T03:49:39.768Z,6.33
2023-04-03T03:52:06.636Z,6.32
2023-04-03T03:54:33.326Z,6.31
2023-04-03T03:57:00.504Z,6.32
2023-04-03T03:59:27.273Z,6.29
2023-04-03T04:01:54.010Z,6.28
2023-04-03T04:04:21.061Z,6.28
2023-04-03T04:06:47.894Z,6.56
2023-04-03T04:09:14.607Z,6.62
2023-04-03T04:11:41.481Z,6.51
2023-04-03T04:14:08.692Z,6.43
2023-04-03T04:16:35.522Z,6.36
2023-04-03T04:19:02.290Z,6.31
2023-04-03T04:21:29.063Z,6.28
2023-04-03T04:23:55.868Z,6.25
2023-04-03T04:26:22.667Z,6.23
2023-04-03T04:28:49.421Z,6.20
2023-04-03T04:31:16.189Z,6.17
2023-04-03T04:33:42.911Z,6.14
2023-04-03T04:36:09.776Z,6.12
2023-04-03T04:38:36.946Z,6.10
2023-04-03T04:41:03.635Z,6.07
2023-04-03T04:43:30.609Z,6.03
2023-04-03T04:46:13.041Z,6.03
2023-04-03T04:48:39.855Z,5.99
2023-04-03T04:51:06.960Z,5.96
2023-04-03T04:53:33.950Z,5.95
2023-04-03T04:56:00.735Z,5.94
2023-04-03T04:58:27.630Z,5.93
2023-04-03T05:01:07.525Z,5.91
2023-04-03T05:03:34.323Z,5.89
2023-04-03T05:06:01.502Z,5.87
2023-04-03T05:08:28.307Z,5.87
2023-04-03T05:10:56.300Z,5.86
2023-04-03T05:13:23.448Z,5.88
2023-04-03T05:15:50.317Z,5.88
2023-04-03T05:18:17.147Z,5.89
2023-04-03T05:20:44.366Z,5.89
2023-04-03T05:23:13.286Z,5.90
2023-04-03T05:25:52.644Z,5.90
2023-04-03T05:28:23.798Z,5.91
2023-04-03T05:31:01.316Z,5.93
2023-04-03T05:36:34.237Z,6.03
2023-04-03T05:39:26.692Z,6.12
2023-04-03T05:41:56.854Z,6.22
2023-04-03T05:44:23.680Z,6.32
2023-04-03T05:46:50.387Z,6.46
2023-04-03T05:49:17.111Z,6.61
2023-04-03T05:51:45.778Z,6.78
2023-04-03T05:54:20.812Z,6.94
2023-04-03T05:56:47.656Z,7.10
2023-04-03T05:59:14.444Z,7.27
2023-04-03T06:01:41.547Z,7.48
2023-04-03T06:04:10.001Z,7.68
2023-04-03T06:06:55.609Z,7.93
2023-04-03T06:09:25.897Z,8.13
2023-04-03T06:11:53.493Z,8.35
2023-04-03T06:14:21.038Z,8.59
2023-04-03T06:16:48.235Z,8.84
2023-04-03T06:19:15.019Z,9.11
2023-04-03T06:21:41.894Z,9.38
2023-04-03T06:24:08.957Z,9.66
2023-04-03T06:26:36.045Z,9.93
2023-04-03T06:29:03.425Z,10.20
2023-04-03T06:31:30.851Z,10.43
2023-04-03T06:33:57.871Z,10.65
2023-04-03T06:36:25.169Z,10.88
2023-04-03T06:38:52.004Z,11.08
2023-04-03T06:41:18.725Z,11.29
2023-04-03T06:43:45.832Z,11.56
2023-04-03T06:46:21.543Z,11.89
2023-04-03T06:48:49.636Z,12.23
2023-04-03T06:51:29.102Z,12.72
2023-04-03T06:53:59.651Z,13.19
2023-04-03T06:56:27.794Z,13.67
2023-04-03T06:58:58.338Z,14.24
2023-04-03T07:01:28.842Z,14.80
2023-04-03T07:03:56.769Z,15.30
2023-04-03T07:06:23.611Z,15.76
2023-04-03T07:08:50.396Z,16.18
2023-04-03T07:11:17.860Z,16.55
2023-04-03T07:13:44.814Z,17.01
2023-04-03T07:16:11.984Z,17.50
2023-04-03T07:18:38.872Z,17.98
2023-04-03T07:21:05.753Z,18.50
2023-04-03T07:23:32.960Z,19.01
2023-04-03T07:26:00.214Z,19.50
2023-04-03T07:28:27.102Z,19.95
2023-04-03T07:31:13.033Z,20.39
2023-04-03T07:33:40.289Z,20.65
2023-04-03T07:36:08.776Z,20.95
2023-04-03T07:38:37.552Z,21.31
2023-04-03T07:41:05.545Z,21.61
2023-04-03T07:43:32.382Z,21.96
2023-04-03T07:46:00.262Z,22.13
2023-04-03T07:48:27.727Z,22.18
2023-04-03T07:50:54.641Z,22.31
2023-04-03T07:53:21.687Z,22.42
2023-04-03T07:55:52.431Z,22.34
2023-04-03T07:58:20.359Z,22.27
2023-04-03T08:00:48.518Z,22.01
2023-04-03T08:03:19.840Z,21.68
2023-04-03T08:05:49.806Z,21.26
2023-04-03T08:08:23.374Z,20.88
2023-04-03T08:10:55.071Z,20.48
2023-04-03T08:13:23.360Z,20.07
2023-04-03T08:15:50.247Z,19.96
2023-04-03T08:18:17.568Z,19.93
2023-04-03T08:20:44.482Z,19.93
2023-04-03T08:23:12.172Z,19.90
2023-04-03T08:25:41.816Z,19.81
2023-04-03T08:28:10.255Z,19.65
2023-04-03T08:30:37.285Z,19.32
2023-04-03T08:33:05.120Z,19.02
2023-04-03T08:35:31.920Z,18.76
2023-04-03T08:37:59.085Z,18.53
2023-04-03T08:40:26.049Z,18.21
2023-04-03T08:42:57.144Z,17.87
2023-04-03T08:45:43.197Z,17.52
2023-04-03T08:48:37.263Z,17.28
2023-04-03T08:51:16.052Z,16.90
2023-04-03T08:54:05.624Z,16.52
2023-04-03T08:56:37.883Z,16.22
2023-04-03T08:59:20.664Z,15.88
2023-04-03T09:01:48.209Z,15.44
2023-04-03T09:04:20.815Z,15.36
2023-04-03T09:06:56.580Z,15.34
2023-04-03T09:09:36.853Z,15.33
2023-04-03T09:12:27.749Z,15.48
2023-04-03T09:15:31.294Z,15.68
2023-04-03T09:18:31.062Z,16.06
2023-04-03T09:21:26.198Z,16.28
2023-04-03T09:23:58.943Z,16.53
2023-04-03T09:26:36.920Z,17.04
2023-04-03T09:29:09.298Z,17.68
2023-04-03T09:31:43.770Z,18.32
2023-04-03T09:34:27.236Z,18.78
2023-04-03T09:36:58.645Z,18.92
2023-04-03T09:39:30.826Z,19.11
2023-04-03T09:42:05.386Z,19.15
2023-04-03T09:44:39.140Z,19.14
2023-04-03T09:47:34.112Z,19.20
2023-04-03T09:50:15.880Z,19.37
2023-04-03T09:52:45.438Z,19.53
2023-04-03T09:55:18.439Z,19.79
2023-04-03T09:57:46.902Z,20.04
2023-04-03T10:00:32.587Z,20.20
2023-04-03T10:03:00.295Z,20.27
2023-04-03T10:05:41.497Z,20.30
2023-04-03T10:08:33.194Z,20.45
2023-04-03T10:11:19.779Z,20.54
2023-04-03T10:14:03.888Z,20.48
2023-04-03T10:16:51.051Z,20.49
2023-04-03T10:19:31.242Z,20.59
2023-04-03T10:22:15.622Z,20.59
2023-04-03T10:25:02.804Z,20.58
2023-04-03T10:27:48.053Z,20.66
2023-04-03T10:30:25.934Z,20.79
2023-04-03T10:33:37.729Z,21.00
2023-04-03T10:36:14.152Z,20.99
2023-04-03T10:39:18.127Z,20.83
2023-04-03T10:42:23.716Z,20.85
2023-04-03T10:45:18.981Z,20.88
2023-04-03T10:48:12.797Z,20.86
2023-04-03T10:51:10.523Z,20.83
2023-04-03T10:53:55.721Z,20.84
2023-04-03T10:56:42.404Z,20.68
2023-04-03T10:59:33.929Z,20.34
2023-04-03T11:02:23.628Z,20.01
2023-04-03T11:04:58.250Z,19.71
2023-04-03T11:07:33.964Z,19.42
2023-04-03T11:10:20.281Z,19.15
2023-04-03T11:13:02.536Z,18.96
2023-04-03T11:15:34.114Z,18.79
2023-04-03T11:18:29.805Z,18.61
2023-04-03T11:21:13.732Z,18.51
2023-04-03T11:23:49.684Z,18.45
2023-04-03T11:26:26.377Z,18.36
2023-04-03T11:29:11.249Z,18.32
2023-04-03T11:32:17.495Z,18.13
2023-04-03T11:34:51.049Z,17.89
2023-04-03T11:37:40.980Z,17.64
2023-04-03T11:40:27.480Z,17.39
2023-04-03T11:43:07.567Z,17.16
2023-04-03T11:46:07.409Z,16.96
2023-04-03T11:48:36.819Z,16.82
2023-04-03T11:51:29.060Z,16.55
2023-04-03T11:54:38.569Z,16.26
2023-04-03T11:58:01.990Z,15.87
2023-04-03T12:00:50.884Z,15.65
2023-04-03T12:03:26.536Z,15.50
2023-04-03T12:06:07.021Z,15.39
2023-04-03T12:08:33.778Z,15.28
2023-04-03T12:11:09.875Z,15.14
2023-04-03T12:13:56.840Z,14.96
2023-04-03T12:16:38.723Z,14.84
2023-04-03T12:19:41.213Z,14.75
2023-04-03T12:22:13.694Z,14.62
2023-04-03T12:24:45.151Z,14.51
2023-04-03T12:27:35.658Z,14.39
2023-04-03T12:30:05.810Z,14.30
2023-04-03T12:33:02.038Z,14.20
2023-04-03T12:35:55.073Z,14.11
2023-04-03T12:38:49.927Z,14.04
2023-04-03T12:41:39.405Z,13.95
2023-04-03T12:44:43.065Z,13.90
2023-04-03T12:47:25.498Z,13.85
2023-04-03T12:49:54.178Z,13.84
2023-04-03T12:52:51.384Z,13.84
2023-04-03T12:55:21.764Z,13.81
2023-04-03T12:57:49.051Z,13.82
2023-04-03T13:00:34.189Z,13.83
2023-04-03T13:03:04.399Z,13.84
2023-04-03T13:05:36.501Z,13.83
2023-04-03T13:08:16.835Z,13.81
2023-04-03T13:11:11.761Z,13.74
2023-04-03T13:13:39.827Z,13.72
2023-04-03T13:16:18.487Z,13.76
2023-04-03T13:18:55.226Z,13.78
2023-04-03T13:21:28.812Z,13.81
2023-04-03T13:24:14.761Z,13.82
2023-04-03T13:26:43.593Z,13.87
2023-04-03T13:29:31.724Z,13.91
2023-04-03T13:32:02.332Z,13.90
2023-04-03T13:34:39.386Z,13.86
2023-04-03T13:37:06.366Z,13.83
2023-04-03T13:39:37.938Z,13.82
2023-04-03T13:42:27.697Z,13.80
2023-04-03T13:45:29.519Z,13.81
2023-04-03T13:48:24.070Z,13.80
2023-04-03T13:51:29.507Z,13.78
2023-04-03T13:54:02.206Z,13.75
2023-04-03T13:56:39.298Z,13.77
2023-04-03T13:59:12.467Z,13.81
2023-04-03T14:01:51.475Z,13.86
2023-04-03T14:04:26.645Z,13.92
2023-04-03T14:06:54.377Z,13.95
2023-04-03T14:09:24.455Z,13.90
2023-04-03T14:11:58.166Z,13.88
2023-04-03T14:14:32.231Z,13.85
2023-04-03T14:17:03.844Z,13.78
2023-04-03T14:19:34.729Z,13.75
2023-04-03T14:22:14.043Z,13.74
2023-04-03T14:24:41.240Z,13.72
2023-04-03T14:27:27.740Z,13.73
2023-04-03T14:29:58.043Z,13.71
2023-04-03T14:32:28.186Z,13.68
2023-04-03T14:34:56.224Z,13.64
2023-04-03T14:37:27.504Z,13.59
2023-04-03T14:39:58.122Z,13.57
2023-04-03T14:42:32.215Z,13.56
2023-04-03T14:45:01.147Z,13.51
2023-04-03T14:47:32.374Z,13.47
2023-04-03T14:50:02.398Z,13.41
2023-04-03T14:52:37.022Z,13.42
2023-04-03T14:55:07.115Z,13.40
2023-04-03T14:57:35.449Z,13.37
2023-04-03T15:00:05.119Z,13.35
2023-04-03T15:02:34.601Z,13.28
2023-04-03T15:05:05.966Z,13.27
2023-04-03T15:07:37.713Z,13.24
2023-04-03T15:10:27.871Z,13.21
2023-04-03T15:12:55.604Z,13.16
2023-04-03T15:15:25.000Z,13.12
2023-04-03T15:17:56.159Z,13.07
2023-04-03T15:20:28.899Z,13.04
2023-04-03T15:22:57.678Z,13.01
2023-04-03T15:25:26.194Z,13.00
2023-04-03T15:27:58.046Z,13.00
2023-04-03T15:30:25.294Z,12.95
2023-04-03T15:32:52.493Z,12.93
2023-04-03T15:35:19.690Z,12.88
2023-04-03T15:37:46.457Z,12.84
2023-04-03T15:40:15.064Z,12.81
2023-04-03T15:42:41.847Z,12.81
2023-04-03T15:45:09.966Z,12.83
2023-04-03T15:47:37.144Z,12.83
2023-04-03T15:50:07.701Z,12.84
2023-04-03T15:52:35.655Z,12.78
2023-04-03T15:55:02.950Z,12.76
2023-04-03T16:00:01.599Z,12.68
2023-04-03T16:02:28.756Z,12.62
2023-04-03T16:04:56.305Z,12.59
2023-04-03T16:07:23.040Z,12.57
2023-04-03T16:09:49.808Z,12.53
2023-04-03T16:12:16.548Z,12.53
2023-04-03T16:14:43.311Z,12.53
2023-04-03T16:17:10.038Z,12.56
2023-04-03T16:19:37.045Z,12.56
2023-04-03T16:22:03.947Z,12.55
2023-04-03T16:24:30.815Z,12.54
2023-04-03T16:26:57.754Z,12.53
2023-04-03T16:29:24.566Z,12.50
2023-04-03T16:31:52.814Z,12.45
2023-04-03T16:34:19.703Z,12.42
2023-04-03T16:36:46.469Z,12.40
2023-04-03T16:39:13.254Z,12.37
2023-04-03T16:41:40.048Z,12.36
2023-04-03T16:44:08.413Z,12.34
2023-04-03T16:46:35.737Z,12.33
2023-04-03T16:49:02.595Z,12.27
2023-04-03T16:51:29.449Z,12.20
2023-04-03T16:53:56.507Z,12.17
2023-04-03T16:56:23.260Z,12.14
2023-04-03T16:58:50.312Z,12.09
2023-04-03T17:01:20.908Z,12.07
2023-04-03T17:03:48.974Z,12.02
2023-04-03T17:06:24.172Z,11.98
2023-04-03T17:08:53.196Z,11.94
2023-04-03T17:11:21.883Z,11.89
2023-04-03T17:13:49.004Z,11.87
2023-04-03T17:16:17.558Z,11.85
2023-04-03T17:18:46.625Z,11.84
2023-04-03T17:21:14.346Z,11.80
2023-04-03T17:23:45.411Z,11.77
2023-04-03T17:26:12.411Z,11.73
2023-04-03T17:28:40.722Z,11.68
2023-04-03T17:31:08.451Z,11.62
2023-04-03T17:33:35.989Z,11.55
2023-04-03T17:36:05.690Z,11.51
2023-04-03T17:38:34.189Z,11.46
2023-04-03T17:41:05.733Z,11.42
2023-04-03T17:43:33.387Z,11.36
2023-04-03T17:46:10.073Z,11.30
2023-04-03T17:48:40.248Z,11.22
2023-04-03T17:51:13.959Z,11.12
2023-04-03T17:53:41.159Z,11.02
2023-04-03T17:56:11.205Z,10.95
2023-04-03T17:58:38.217Z,10.86
2023-04-03T18:01:27.464Z,10.75
2023-04-03T18:03:57.328Z,10.67
2023-04-03T18:06:34.042Z,10.57
2023-04-03T18:09:14.551Z,10.50
2023-04-03T18:11:42.218Z,10.44
2023-04-03T18:14:10.514Z,10.39
2023-04-03T18:16:37.511Z,10.32
2023-04-03T18:21:36.556Z,10.18
2023-04-03T18:24:06.638Z,10.09
2023-04-03T18:26:34.190Z,10.00
2023-04-03T18:29:05.749Z,9.94
2023-04-03T18:31:35.458Z,9.86
2023-04-03T18:34:02.296Z,9.81
2023-04-03T18:36:29.414Z,9.75
2023-04-03T18:38:56.476Z,9.70
2023-04-03T18:41:31.254Z,9.63
2023-04-03T18:44:01.414Z,9.60
2023-04-03T18:46:28.296Z,9.55
2023-04-03T18:48:56.011Z,9.51
2023-04-03T18:51:22.934Z,9.45
2023-04-03T18:53:49.782Z,9.42
2023-04-03T18:56:16.549Z,9.37
2023-04-03T18:58:43.434Z,9.31
2023-04-03T19:01:10.610Z,9.29
2023-04-03T19:03:37.926Z,9.23
2023-04-03T19:06:05.856Z,9.19
2023-04-03T19:08:33.648Z,9.15
2023-04-03T19:11:00.574Z,9.11
2023-04-03T19:13:28.125Z,9.06
2023-04-03T19:15:58.780Z,9.03
2023-04-03T19:18:27.453Z,8.98
2023-04-03T19:20:59.017Z,8.94
2023-04-03T19:23:26.640Z,8.87
2023-04-03T19:26:07.468Z,8.81
2023-04-03T19:28:34.707Z,8.76
2023-04-03T19:31:02.252Z,8.72
2023-04-03T19:33:29.059Z,8.67
2023-04-03T19:35:56.441Z,8.66
2023-04-03T19:38:23.203Z,8.59
2023-04-03T19:40:50.002Z,8.56
2023-04-03T19:43:17.326Z,8.53
2023-04-03T19:45:46.309Z,8.50
2023-04-03T19:48:13.518Z,8.48
2023-04-03T19:50:40.752Z,8.46
2023-04-03T19:53:09.220Z,8.44
2023-04-03T19:55:38.036Z,8.41
2023-04-03T19:58:05.004Z,8.38
2023-04-03T20:00:32.339Z,8.34
2023-04-03T20:02:59.211Z,8.32
2023-04-03T20:05:26.175Z,8.29
2023-04-03T20:07:52.924Z,8.28
2023-04-03T20:10:20.195Z,8.26
2023-04-03T20:12:46.988Z,8.21
2023-04-03T20:15:14.106Z,8.19
2023-04-03T20:17:41.261Z,8.16
2023-04-03T20:20:09.337Z,8.13
2023-04-03T20:22:38.829Z,8.11
2023-04-03T20:25:09.608Z,8.08
2023-04-03T20:27:36.759Z,8.07
2023-04-03T20:30:08.751Z,8.06
2023-04-03T20:32:35.872Z,8.03
2023-04-03T20:35:04.358Z,8.03
2023-04-03T20:37:32.538Z,7.99
2023-04-03T20:39:59.301Z,7.98
2023-04-03T20:42:26.133Z,7.97
2023-04-03T20:44:52.954Z,7.94
2023-04-03T20:47:19.868Z,7.92
2023-04-03T20:49:46.683Z,7.88
2023-04-03T20:52:13.442Z,7.86
2023-04-03T20:54:40.758Z,7.84
2023-04-03T20:57:07.573Z,7.81
2023-04-03T20:59:35.034Z,7.79
2023-04-03T21:02:01.873Z,7.78
2023-04-03T21:04:42.178Z,7.75
2023-04-03T21:08:05.189Z,7.70
2023-04-03T21:11:31.540Z,7.63
2023-04-03T21:14:55.149Z,7.55
2023-04-03T21:17:21.747Z,7.48
2023-04-03T21:19:48.811Z,7.46
2023-04-03T21:22:16.165Z,7.46
2023-04-03T21:24:44.353Z,7.50
2023-04-03T21:27:11.501Z,7.52
2023-04-03T21:29:38.738Z,7.53
2023-04-03T21:32:05.824Z,7.54
2023-04-03T21:34:33.133Z,7.54
2023-04-03T21:37:06.073Z,7.56
2023-04-03T21:39:33.311Z,7.55
2023-04-03T21:42:00.599Z,7.55
2023-04-03T21:44:30.795Z,7.55
2023-04-03T21:46:57.811Z,7.53
2023-04-03T21:49:25.706Z,7.51
2023-04-03T21:51:52.657Z,7.47
2023-04-03T21:54:20.647Z,7.44
2023-04-03T21:56:48.299Z,7.41
2023-04-03T21:59:15.713Z,7.36
2023-04-03T22:01:43.110Z,7.35
2023-04-03T22:04:10.014Z,7.33
2023-04-03T22:06:37.854Z,7.32
2023-04-03T22:09:05.150Z,7.31
2023-04-03T22:11:32.180Z,7.29
2023-04-03T22:13:59.772Z,7.28
2023-04-03T22:16:27.385Z,7.25
2023-04-03T22:18:54.832Z,7.22
2023-04-03T22:21:22.000Z,7.19
2023-04-03T22:23:48.906Z,7.16
2023-04-03T22:26:16.061Z,7.13
2023-04-03T22:28:45.688Z,7.10
2023-04-03T22:31:14.043Z,7.08
2023-04-03T22:33:43.824Z,7.05
2023-04-03T22:36:12.928Z,7.04
2023-04-03T22:38:43.669Z,7.04
2023-04-03T22:41:10.829Z,7.01
2023-04-03T22:43:39.232Z,7.00
2023-04-03T22:46:08.699Z,6.99
2023-04-03T22:48:37.088Z,6.99
2023-04-03T22:51:07.533Z,6.99
2023-04-03T22:53:35.870Z,6.93
2023-04-03T22:56:08.324Z,6.90
2023-04-03T22:58:35.180Z,6.86
2023-04-03T23:01:13.880Z,6.83
2023-04-03T23:03:42.569Z,6.80
2023-04-03T23:06:10.965Z,6.77
2023-04-03T23:08:38.533Z,6.74
2023-04-03T23:11:07.129Z,6.73
2023-04-03T23:13:34.100Z,6.71
2023-04-03T23:16:02.829Z,6.70
2023-04-03T23:18:31.865Z,6.69
2023-04-03T23:21:03.697Z,6.65
2023-04-03T23:23:31.014Z,6.60
2023-04-03T23:26:01.393Z,6.60
2023-04-03T23:28:28.980Z,6.57
2023-04-03T23:31:07.048Z,6.55
2023-04-03T23:36:17.669Z,6.49
2023-04-03T23:38:44.553Z,6.45
2023-04-03T23:41:11.382Z,6.42
2023-04-03T23:43:39.584Z,6.40
2023-04-03T23:46:06.364Z,6.36
2023-04-03T23:48:33.110Z,6.36
2023-04-03T23:50:59.809Z,6.32
2023-04-03T23:53:27.151Z,6.30
2023-04-03T23:55:53.880Z,6.26
2023-04-03T23:58:20.735Z,6.22
